Time;durP1;ratioP1;P1;durP2;ratioP2;P2;SDS_P1;SDS_P2;PMS_P1;PMS_P2;Temp;Humidity;BMP_temperature;BMP_pressure;BME280_temperature;BME280_humidity;BME280_pressure;Samples;Min_cycle;Max_cycle;Signal;HPM_P1;HPM_P2
2021/09/17 00:01:34;;;;;;;;;13.75;13.00;;;;;24.37;45.46;101450.16;5037066;28;51072;-54
2021/09/17 00:03:59;;;;;;;;;16.25;15.25;;;;;24.37;45.12;101450.16;5028483;28;51502;-55
2021/09/17 00:06:25;;;;;;;;;16.50;15.00;;;;;24.36;45.43;101448.47;5026564;28;51093;-54
2021/09/17 00:08:50;;;;;;;;;18.50;17.25;;;;;24.35;45.59;101449.56;5025769;28;51780;-54
2021/09/17 00:11:16;;;;;;;;;15.00;13.25;;;;;24.34;45.54;101439.56;5018699;28;51026;-52
2021/09/17 00:13:42;;;;;;;;;17.50;15.00;;;;;24.34;45.83;101445.09;5018053;28;51586;-53
2021/09/17 00:16:07;;;;;;;;;17.25;13.50;;;;;24.33;45.25;101449.78;5023792;28;51286;-54
2021/09/17 00:18:33;;;;;;;;;13.25;13.25;;;;;24.32;45.30;101447.25;5036519;28;51217;-55
2021/09/17 00:20:58;;;;;;;;;18.25;12.75;;;;;24.31;45.61;101443.66;5020262;28;51138;-53
2021/09/17 00:23:24;;;;;;;;;15.50;12.25;;;;;24.30;45.24;101443.84;5034055;28;51176;-52
2021/09/17 00:25:49;;;;;;;;;14.50;13.25;;;;;24.30;45.15;101432.78;5030827;28;51057;-54
2021/09/17 00:28:15;;;;;;;;;14.75;13.50;;;;;24.29;45.42;101439.41;5026210;28;51893;-54
2021/09/17 00:30:41;;;;;;;;;15.25;13.00;;;;;24.28;45.47;101437.69;5026813;28;51271;-54
2021/09/17 00:33:07;;;;;;;;;13.00;12.50;;;;;24.28;45.72;101432.16;5034865;28;51052;-55
2021/09/17 00:35:33;;;;;;;;;12.50;12.00;;;;;24.27;45.62;101436.84;5033027;28;51897;-55
2021/09/17 00:37:58;;;;;;;;;14.00;12.50;;;;;24.26;45.73;101432.38;5025230;28;51053;-54
2021/09/17 00:40:25;;;;;;;;;17.00;14.00;;;;;24.25;46.01;101425.16;5034501;28;51279;-53
2021/09/17 00:42:50;;;;;;;;;15.00;13.25;;;;;24.26;45.70;101431.53;5026774;28;51109;-53
2021/09/17 00:45:15;;;;;;;;;13.75;13.25;;;;;24.25;45.71;101424.31;5022315;28;50944;-54
2021/09/17 00:47:42;;;;;;;;;14.25;13.00;;;;;24.24;46.17;101425.41;5024903;28;51695;-54
2021/09/17 00:50:12;;;;;;;;;18.25;14.25;;;;;24.24;45.94;101426.25;5024446;28;51076;-54
2021/09/17 00:52:38;;;;;;;;;14.00;13.75;;;;;24.23;45.97;101423.72;5025552;28;51116;-53
2021/09/17 00:55:04;;;;;;;;;18.50;16.50;;;;;24.23;45.99;101418.16;5019991;28;51339;-54
2021/09/17 00:57:31;;;;;;;;;17.75;16.25;;;;;24.22;46.14;101413.72;5034021;28;50993;-53
2021/09/17 00:59:56;;;;;;;;;20.00;16.50;;;;;24.21;45.94;101409.25;5034974;28;51051;-55
2021/09/17 01:02:22;;;;;;;;;14.75;14.50;;;;;24.21;46.35;101409.25;5036065;28;51517;-51
2021/09/17 01:04:47;;;;;;;;;17.50;14.00;;;;;24.22;46.00;101411.78;5034955;28;50959;-55
2021/09/17 01:07:13;;;;;;;;;18.50;16.25;;;;;24.21;46.10;101407.34;5018611;28;51399;-54
2021/09/17 01:09:39;;;;;;;;;16.50;15.00;;;;;24.20;46.21;101413.97;5016343;28;51274;-55
2021/09/17 01:12:06;;;;;;;;;18.50;16.00;;;;;24.18;46.34;101408.66;5017134;28;51217;-55
2021/09/17 01:14:34;;;;;;;;;17.50;17.00;;;;;24.18;46.41;101408.66;5032628;28;51109;-55
2021/09/17 01:17:02;;;;;;;;;20.75;16.00;;;;;24.18;46.38;101405.03;5022094;28;52099;-55
2021/09/17 01:19:27;;;;;;;;;16.50;15.25;;;;;24.17;46.32;101398.63;5017853;28;51119;-52
2021/09/17 01:21:58;;;;;;;;;19.00;18.00;;;;;24.18;46.79;101402.28;5018015;28;51367;-55
2021/09/17 01:24:23;;;;;;;;;16.50;13.50;;;;;24.17;46.51;101398.63;5017102;28;51093;-55
2021/09/17 01:26:49;;;;;;;;;14.75;11.25;;;;;24.17;46.55;101398.63;5018551;28;51017;-56
2021/09/17 01:29:15;;;;;;;;;15.50;13.50;;;;;24.17;46.49;101393.09;5020834;28;51510;-50
2021/09/17 01:31:40;;;;;;;;;17.00;14.00;;;;;24.18;46.09;101391.22;5032852;28;51672;-55
2021/09/17 01:34:09;;;;;;;;;14.25;12.50;;;;;24.17;46.30;101384.78;5033962;28;51081;-56
2021/09/17 01:36:35;;;;;;;;;10.75;10.75;;;;;24.16;45.85;101383.09;5023001;28;51136;-54
2021/09/17 01:39:01;;;;;;;;;14.25;12.00;;;;;24.17;45.94;101381.19;5030895;28;51054;-54
2021/09/17 01:41:26;;;;;;;;;13.50;13.50;;;;;24.16;45.93;101376.72;5021515;28;52314;-55
2021/09/17 01:43:52;;;;;;;;;15.50;13.50;;;;;24.16;46.30;101383.09;5035634;28;51003;-54
2021/09/17 01:46:18;;;;;;;;;14.00;14.00;;;;;24.16;46.33;101373.97;5023011;28;51070;-55
2021/09/17 01:48:43;;;;;;;;;12.00;11.00;;;;;24.16;46.24;101365.66;5017238;28;51045;-55
2021/09/17 01:51:08;;;;;;;;;13.75;11.00;;;;;24.15;46.08;101362.03;5017527;28;51258;-55
2021/09/17 01:53:34;;;;;;;;;13.75;12.25;;;;;24.16;46.26;101365.66;5017878;28;51027;-55
2021/09/17 01:56:00;;;;;;;;;14.50;12.00;;;;;24.15;46.03;101362.03;5017340;28;51853;-55
2021/09/17 01:58:26;;;;;;;;;14.00;12.25;;;;;24.15;46.10;101359.28;5034687;28;51068;-53
2021/09/17 02:00:51;;;;;;;;;14.50;13.00;;;;;24.14;45.86;101360.38;5033611;28;51048;-55
2021/09/17 02:03:16;;;;;;;;;12.50;12.50;;;;;24.14;46.14;101348.44;5030698;28;51045;-54
2021/09/17 02:05:42;;;;;;;;;13.25;12.25;;;;;24.13;45.99;101355.91;5028189;28;50945;-54
2021/09/17 02:08:07;;;;;;;;;12.00;11.00;;;;;24.13;46.25;101352.28;5016732;28;51233;-54
2021/09/17 02:10:33;;;;;;;;;13.75;12.25;;;;;24.13;45.97;101344.84;5016267;28;51152;-55
2021/09/17 02:12:58;;;;;;;;;13.25;10.75;;;;;24.12;45.90;101339.53;5017304;28;51176;-54
2021/09/17 02:15:24;;;;;;;;;12.25;12.25;;;;;24.12;46.15;101340.38;5021003;28;51832;-53
2021/09/17 02:17:49;;;;;;;;;12.75;11.50;;;;;24.12;45.90;101336.78;5030817;28;51285;-54
2021/09/17 02:20:14;;;;;;;;;14.75;14.00;;;;;24.11;46.00;101341.47;5034114;28;51041;-52
2021/09/17 02:22:40;;;;;;;;;14.75;11.25;;;;;24.11;45.87;101333.16;5016355;28;51028;-52
2021/09/17 02:25:06;;;;;;;;;14.50;12.00;;;;;24.10;46.28;101342.53;5014134;28;51768;-53
2021/09/17 02:27:31;;;;;;;;;15.25;14.50;;;;;24.09;46.14;101334.47;5031114;28;51134;-54
2021/09/17 02:29:57;;;;;;;;;11.50;10.50;;;;;24.09;46.21;101334.47;5024694;28;51267;-56
2021/09/17 02:32:22;;;;;;;;;12.75;11.50;;;;;24.08;46.36;101328.09;5033593;28;51324;-55
2021/09/17 02:34:48;;;;;;;;;14.50;14.25;;;;;24.09;45.99;101326.19;5026007;28;52088;-55
2021/09/17 02:37:13;;;;;;;;;14.00;13.25;;;;;24.08;46.03;101332.81;5025988;28;50954;-54
2021/09/17 02:39:39;;;;;;;;;15.50;13.25;;;;;24.06;46.29;101330.25;5030533;28;52343;-54
2021/09/17 02:42:04;;;;;;;;;13.00;12.50;;;;;24.06;46.75;101337.69;5034719;28;51127;-53
2021/09/17 02:44:30;;;;;;;;;12.75;11.50;;;;;24.04;46.58;101331.56;5016411;28;51014;-53
2021/09/17 02:46:56;;;;;;;;;14.25;13.25;;;;;24.04;46.65;101340.72;5016792;28;51229;-54
2021/09/17 02:49:21;;;;;;;;;13.75;13.75;;;;;24.02;46.59;101323.50;5034015;28;51494;-53
2021/09/17 02:51:47;;;;;;;;;12.25;11.50;;;;;24.01;46.60;101321.81;5034825;28;51016;-55
2021/09/17 02:54:12;;;;;;;;;17.00;13.50;;;;;24.00;46.14;101317.34;5024273;28;51704;-54
2021/09/17 02:56:38;;;;;;;;;14.50;13.25;;;;;23.99;46.89;101312.06;5029065;28;51319;-54
2021/09/17 02:59:03;;;;;;;;;12.75;12.75;;;;;23.97;46.75;101315.06;5022353;28;51121;-54
2021/09/17 03:01:28;;;;;;;;;12.25;12.25;;;;;23.97;46.54;101308.66;5031529;28;51163;-54
2021/09/17 03:03:54;;;;;;;;;14.50;14.50;;;;;23.96;46.45;101313.34;5032878;28;51238;-54
2021/09/17 03:06:19;;;;;;;;;17.50;14.25;;;;;23.95;46.57;101311.66;5031474;28;51024;-54
2021/09/17 03:08:45;;;;;;;;;15.00;13.75;;;;;23.93;46.49;101318.53;5015349;28;51089;-54
2021/09/17 03:11:10;;;;;;;;;15.00;13.25;;;;;23.94;46.72;101317.44;5015455;28;51178;-54
2021/09/17 03:13:35;;;;;;;;;15.50;13.50;;;;;23.93;46.34;101308.28;5016275;28;51674;-54
2021/09/17 03:16:05;;;;;;;;;13.00;12.25;;;;;23.92;46.49;101305.78;5027499;28;51281;-54
2021/09/17 03:18:30;;;;;;;;;13.75;12.75;;;;;23.91;46.39;101302.16;5014977;28;50979;-54
2021/09/17 03:20:56;;;;;;;;;15.50;13.75;;;;;23.91;46.92;101304.94;5023476;28;51135;-53
2021/09/17 03:23:21;;;;;;;;;12.50;12.00;;;;;23.89;46.52;101302.41;5014845;28;51796;-54
2021/09/17 03:25:47;;;;;;;;;14.25;13.00;;;;;23.89;46.81;101296.03;5024415;28;50982;-53
2021/09/17 03:28:12;;;;;;;;;12.75;11.50;;;;;23.88;46.57;101294.34;5027338;28;51035;-53
2021/09/17 03:30:38;;;;;;;;;13.75;12.50;;;;;23.87;46.40;101292.66;5015425;28;50884;-53
2021/09/17 03:33:03;;;;;;;;;12.50;11.75;;;;;23.86;46.45;101291.81;5019747;28;51781;-54
2021/09/17 03:35:29;;;;;;;;;13.75;9.75;;;;;23.85;46.55;101295.63;5026267;28;51217;-56
2021/09/17 03:37:54;;;;;;;;;11.25;11.25;;;;;23.85;46.77;101295.63;5037921;28;51188;-56
2021/09/17 03:40:20;;;;;;;;;14.50;13.50;;;;;23.84;46.67;101287.56;5022131;28;51282;-56
2021/09/17 03:42:45;;;;;;;;;13.25;10.75;;;;;23.84;46.69;101290.34;5030982;28;51804;-55
2021/09/17 03:45:11;;;;;;;;;16.00;14.25;;;;;23.83;46.64;101283.94;5037558;28;51109;-56
2021/09/17 03:47:37;;;;;;;;;15.75;13.25;;;;;23.83;46.70;101291.41;5023656;28;51100;-56
2021/09/17 03:50:05;;;;;;;;;16.00;14.75;;;;;23.81;46.77;101297.19;5018507;28;51012;-52
2021/09/17 03:52:30;;;;;;;;;12.00;11.75;;;;;23.80;46.58;101295.50;5028494;28;51163;-56
2021/09/17 03:54:56;;;;;;;;;6.00;5.50;;;;;23.80;46.61;101292.72;5033899;28;51103;-55
2021/09/17 03:57:21;;;;;;;;;13.50;13.25;;;;;23.79;46.83;101299.34;5035618;28;51242;-56
2021/09/17 03:59:46;;;;;;;;;15.50;14.00;;;;;23.79;47.10;101298.50;5020750;28;51274;-55
2021/09/17 04:02:11;;;;;;;;;18.50;14.50;;;;;23.77;46.53;101295.97;5026419;28;51021;-55
2021/09/17 04:04:39;;;;;;;;;12.00;12.00;;;;;23.77;47.04;101292.38;5017961;28;50988;-53
2021/09/17 04:07:05;;;;;;;;;12.25;11.00;;;;;23.75;46.75;101294.50;5016707;28;51192;-56
2021/09/17 04:09:30;;;;;;;;;15.75;12.75;;;;;23.74;46.50;101296.41;5035376;28;51214;-56
2021/09/17 04:11:55;;;;;;;;;17.50;14.50;;;;;23.73;46.61;101294.72;5028748;28;51201;-53
2021/09/17 04:14:21;;;;;;;;;13.75;12.75;;;;;23.71;47.04;101298.81;5018108;28;51168;-53
2021/09/17 04:16:46;;;;;;;;;12.00;12.00;;;;;23.71;46.64;101293.28;5023043;28;51509;-54
2021/09/17 04:19:12;;;;;;;;;13.75;12.75;;;;;23.70;46.94;101303.50;5019108;28;51417;-55
2021/09/17 04:21:37;;;;;;;;;14.25;14.00;;;;;23.68;46.89;101300.13;5016395;28;53553;-58
2021/09/17 04:24:02;;;;;;;;;14.75;13.00;;;;;23.68;47.27;101288.22;5017934;28;51274;-54
2021/09/17 04:26:28;;;;;;;;;12.00;10.25;;;;;23.68;46.97;101291.00;5022788;28;51179;-54
2021/09/17 04:28:53;;;;;;;;;12.25;11.00;;;;;23.67;46.97;101295.69;5028572;28;51033;-53
2021/09/17 04:31:19;;;;;;;;;13.25;12.25;;;;;23.66;46.92;101294.00;5035246;28;50959;-51
2021/09/17 04:33:44;;;;;;;;;15.25;13.25;;;;;23.65;47.03;101288.66;5025325;28;51002;-53
2021/09/17 04:36:09;;;;;;;;;12.00;10.75;;;;;23.66;46.83;101298.69;5036539;28;51086;-55
2021/09/17 04:38:35;;;;;;;;;13.75;12.25;;;;;23.66;46.77;101290.38;5031339;28;51005;-53
2021/09/17 04:41:00;;;;;;;;;13.25;12.00;;;;;23.65;47.29;101294.19;5018239;28;51014;-52
2021/09/17 04:43:27;;;;;;;;;14.00;11.75;;;;;23.65;47.17;101291.44;5034474;28;51060;-53
2021/09/17 04:45:53;;;;;;;;;12.50;12.25;;;;;23.63;46.68;101290.84;5022242;28;51129;-53
2021/09/17 04:48:19;;;;;;;;;13.00;11.50;;;;;23.61;47.24;101291.06;5029184;28;51248;-55
2021/09/17 04:50:44;;;;;;;;;13.25;11.25;;;;;23.61;47.26;101288.31;5034886;28;51740;-52
2021/09/17 04:53:10;;;;;;;;;12.50;10.75;;;;;23.60;47.01;101290.22;5021695;28;51134;-55
2021/09/17 04:55:35;;;;;;;;;13.00;12.25;;;;;23.60;47.22;101289.38;5017501;28;51172;-54
2021/09/17 04:58:06;;;;;;;;;10.00;10.00;;;;;23.60;47.11;101292.16;5021277;28;52299;-54
2021/09/17 05:00:32;;;;;;;;;13.00;11.00;;;;;23.60;47.23;101290.22;5033479;28;51096;-55
2021/09/17 05:02:57;;;;;;;;;12.50;12.25;;;;;23.58;47.02;101289.63;5022198;28;51212;-52
2021/09/17 05:05:23;;;;;;;;;17.25;14.25;;;;;23.60;47.56;101290.22;5017691;28;51644;-54
2021/09/17 05:07:49;;;;;;;;;13.25;11.25;;;;;23.59;46.83;101288.53;5034877;28;51067;-49
2021/09/17 05:10:14;;;;;;;;;13.00;13.00;;;;;23.59;47.33;101291.31;5016820;28;51603;-53
2021/09/17 05:12:39;;;;;;;;;15.00;13.00;;;;;23.58;47.30;101289.63;5027303;28;51034;-54
2021/09/17 05:15:06;;;;;;;;;11.75;11.75;;;;;23.59;47.26;101294.06;5035997;28;51021;-54
2021/09/17 05:17:31;;;;;;;;;16.75;11.75;;;;;23.59;46.99;101293.22;5016922;28;51022;-52
2021/09/17 05:19:56;;;;;;;;;13.25;12.25;;;;;23.58;47.21;101285.97;5016470;28;51781;-54
2021/09/17 05:22:22;;;;;;;;;12.75;12.75;;;;;23.56;47.49;101280.69;5027414;28;51392;-53
2021/09/17 05:24:47;;;;;;;;;15.50;11.25;;;;;23.57;47.63;101274.06;5036053;28;51605;-53
2021/09/17 05:27:14;;;;;;;;;18.00;14.25;;;;;23.56;46.99;101283.44;5039334;28;51087;-54
2021/09/17 05:29:41;;;;;;;;;15.00;14.00;;;;;23.56;47.10;101279.84;5034086;28;52171;-55
2021/09/17 05:32:07;;;;;;;;;15.50;13.25;;;;;23.55;47.62;101287.31;5027724;28;51001;-55
2021/09/17 05:34:32;;;;;;;;;12.50;11.50;;;;;23.54;47.68;101279.22;5030314;28;51106;-54
2021/09/17 05:36:57;;;;;;;;;15.75;13.75;;;;;23.53;47.51;101281.13;5026489;28;51235;-54
2021/09/17 05:39:23;;;;;;;;;12.50;11.50;;;;;23.53;47.77;101275.59;5030925;28;51330;-56
2021/09/17 05:41:49;;;;;;;;;14.00;14.00;;;;;23.54;47.56;101274.53;5019166;28;51160;-55
2021/09/17 05:44:14;;;;;;;;;13.75;13.50;;;;;23.54;47.71;101285.59;5023675;28;52535;-55
2021/09/17 05:46:40;;;;;;;;;13.75;13.50;;;;;23.51;47.40;101283.28;5032725;28;51551;-57
2021/09/17 05:49:05;;;;;;;;;11.75;11.75;;;;;23.51;47.82;101287.97;5020403;28;51720;-56
2021/09/17 05:51:30;;;;;;;;;13.00;13.00;;;;;23.47;47.65;101282.06;5023473;28;51186;-54
2021/09/17 05:53:56;;;;;;;;;15.25;15.00;;;;;23.45;47.93;101286.16;5017635;28;51169;-56
2021/09/17 05:56:21;;;;;;;;;15.75;13.50;;;;;23.42;47.95;101276.38;5016345;28;51049;-54
2021/09/17 05:58:47;;;;;;;;;14.25;14.00;;;;;23.38;47.68;101280.69;5015905;28;51839;-56
2021/09/17 06:01:12;;;;;;;;;16.75;13.75;;;;;23.36;47.90;101282.00;5026609;28;51152;-53
2021/09/17 06:03:39;;;;;;;;;12.75;11.75;;;;;23.33;47.63;101277.75;5025085;28;51218;-55
2021/09/17 06:06:05;;;;;;;;;21.25;13.75;;;;;23.31;47.77;101288.22;5024275;28;50937;-55
2021/09/17 06:08:30;;;;;;;;;17.00;14.25;;;;;23.30;47.74;101286.53;5033332;28;51467;-55
2021/09/17 06:10:55;;;;;;;;;14.75;14.00;;;;;23.28;47.80;101284.00;5031599;28;51338;-56
2021/09/17 06:13:20;;;;;;;;;16.25;12.50;;;;;23.26;47.70;101297.22;5031035;28;51032;-54
2021/09/17 06:15:46;;;;;;;;;17.50;13.50;;;;;23.25;48.03;101291.91;5029034;28;51257;-55
2021/09/17 06:18:11;;;;;;;;;14.50;11.00;;;;;23.23;48.55;101285.75;5027335;28;51894;-58
2021/09/17 06:20:36;;;;;;;;;12.25;12.25;;;;;23.23;48.06;101285.75;5028130;28;51131;-59
2021/09/17 06:23:02;;;;;;;;;13.00;11.75;;;;;23.25;48.31;101283.63;5022532;28;51342;-58
2021/09/17 06:25:27;;;;;;;;;14.00;12.00;;;;;23.26;48.22;101280.63;5030334;28;51224;-57
2021/09/17 06:27:52;;;;;;;;;14.25;12.25;;;;;23.28;48.24;101274.88;5021091;28;52137;-58
2021/09/17 06:30:20;;;;;;;;;11.75;10.75;;;;;23.30;47.96;101275.47;5029704;28;51144;-57
2021/09/17 06:32:45;;;;;;;;;13.00;13.00;;;;;23.32;48.21;101267.78;5027201;28;51204;-58
2021/09/17 06:35:13;;;;;;;;;13.00;13.00;;;;;23.33;48.32;101263.94;5029396;28;51216;-57
2021/09/17 06:37:50;;;;;;;;;12.75;12.75;;;;;23.34;48.03;101271.16;5023323;28;51095;-57
2021/09/17 06:40:16;;;;;;;;;12.00;11.50;;;;;23.37;48.61;101261.59;5030185;28;51050;-57
2021/09/17 06:42:42;;;;;;;;;13.00;12.75;;;;;23.38;48.23;101268.78;5031013;28;51391;-56
2021/09/17 06:45:08;;;;;;;;;13.50;12.00;;;;;23.41;48.42;101268.31;5026479;28;51232;-56
2021/09/17 06:47:43;;;;;;;;;12.50;11.00;;;;;23.41;48.70;101273.84;5019078;28;51107;-56
2021/09/17 06:50:09;;;;;;;;;14.25;14.25;;;;;23.42;48.64;101265.31;5026102;28;51467;-57
2021/09/17 06:52:34;;;;;;;;;11.25;10.00;;;;;23.44;48.65;101268.69;5031073;28;51118;-56
2021/09/17 06:54:59;;;;;;;;;13.00;13.00;;;;;23.46;48.53;101274.03;5029030;28;51422;-57
2021/09/17 06:57:25;;;;;;;;;11.75;11.75;;;;;23.46;47.98;101265.72;5030916;28;51746;-57
2021/09/17 06:59:50;;;;;;;;;15.25;12.00;;;;;23.46;48.21;101272.09;5022368;28;51112;-57
2021/09/17 07:02:15;;;;;;;;;11.50;10.50;;;;;23.47;48.00;101264.66;5017651;28;51108;-57
2021/09/17 07:04:41;;;;;;;;;14.00;12.00;;;;;23.46;48.40;101263.81;5014652;28;51154;-57
2021/09/17 07:07:06;;;;;;;;;14.25;13.25;;;;;23.46;47.82;101258.28;5016734;28;51013;-58
2021/09/17 07:09:31;;;;;;;;;13.50;11.75;;;;;23.46;47.95;101257.44;5017844;28;51528;-57
2021/09/17 07:11:57;;;;;;;;;13.50;12.00;;;;;23.46;47.96;101258.28;5030795;28;51619;-57
2021/09/17 07:14:22;;;;;;;;;19.25;13.75;;;;;23.46;47.87;101246.38;5036227;28;51178;-57
2021/09/17 07:16:47;;;;;;;;;15.75;13.00;;;;;23.46;47.65;101262.97;5035104;28;52072;-57
2021/09/17 07:19:13;;;;;;;;;18.75;14.00;;;;;23.45;47.98;101251.06;5036597;28;51177;-58
2021/09/17 07:21:38;;;;;;;;;20.75;17.00;;;;;23.46;47.33;101261.03;5037376;28;51121;-57
2021/09/17 07:24:04;;;;;;;;;17.50;16.50;;;;;23.46;47.54;101260.19;5037634;28;51060;-56
2021/09/17 07:26:29;;;;;;;;;13.00;11.50;;;;;23.46;47.82;101258.28;5043470;28;51780;-57
2021/09/17 07:28:54;;;;;;;;;15.25;12.50;;;;;23.46;47.36;101258.28;5057805;28;50996;-57
2021/09/17 07:31:20;;;;;;;;;12.50;11.75;;;;;23.46;47.77;101263.81;5057635;28;51292;-57
2021/09/17 07:33:45;;;;;;;;;13.75;11.75;;;;;23.46;47.59;101261.03;5057735;28;50911;-56
2021/09/17 07:36:11;;;;;;;;;14.25;12.75;;;;;23.45;47.54;101258.50;5057380;28;50962;-57
2021/09/17 07:38:36;;;;;;;;;14.25;12.00;;;;;23.46;47.49;101249.97;5057844;28;51049;-56
2021/09/17 07:41:01;;;;;;;;;15.75;13.00;;;;;23.46;47.14;101252.75;5057510;28;51455;-56
2021/09/17 07:43:27;;;;;;;;;11.50;10.75;;;;;23.47;47.39;101259.13;5057496;28;51134;-56
2021/09/17 07:45:52;;;;;;;;;11.50;11.25;;;;;23.48;47.69;101255.28;5037060;28;51938;-58
2021/09/17 07:48:17;;;;;;;;;13.75;12.00;;;;;23.49;47.23;101265.25;5037136;28;51195;-57
2021/09/17 07:50:43;;;;;;;;;12.50;11.25;;;;;23.50;47.45;101258.63;5037495;28;51178;-57
2021/09/17 07:53:09;;;;;;;;;10.75;10.00;;;;;23.51;47.30;101261.16;5037516;28;51085;-56
2021/09/17 07:55:35;;;;;;;;;11.00;9.75;;;;;23.52;47.67;101271.16;5036929;28;51047;-57
2021/09/17 07:58:05;;;;;;;;;10.00;10.00;;;;;23.52;47.46;101275.84;5036880;28;51198;-59
2021/09/17 08:00:30;;;;;;;;;12.50;12.50;;;;;23.53;47.24;101261.78;5036953;28;51056;-57
2021/09/17 08:02:56;;;;;;;;;11.50;11.50;;;;;23.55;47.03;101264.31;5036792;28;51109;-58
2021/09/17 08:05:21;;;;;;;;;13.00;10.00;;;;;23.56;47.24;101268.78;5036760;28;51015;-57
2021/09/17 08:07:46;;;;;;;;;9.25;8.50;;;;;23.57;47.24;101271.31;5036548;28;51039;-58
2021/09/17 08:10:12;;;;;;;;;11.75;11.75;;;;;23.57;47.38;101265.78;5037015;28;51083;-57
2021/09/17 08:12:38;;;;;;;;;13.50;10.00;;;;;23.59;47.07;101263.66;5037270;28;51394;-57
2021/09/17 08:15:04;;;;;;;;;10.25;9.25;;;;;23.59;47.25;101268.34;5036605;28;51767;-57
2021/09/17 08:17:30;;;;;;;;;10.00;9.50;;;;;23.60;46.98;101265.34;5036730;28;51347;-57
2021/09/17 08:19:55;;;;;;;;;12.50;11.00;;;;;23.64;47.30;101270.38;5035700;28;51056;-57
2021/09/17 08:22:21;;;;;;;;;10.25;9.50;;;;;23.65;46.95;101274.84;5036891;28;51199;-56
2021/09/17 08:24:46;;;;;;;;;12.75;10.50;;;;;23.67;47.05;101267.19;5036592;28;51179;-57
2021/09/17 08:27:12;;;;;;;;;12.75;9.00;;;;;23.68;46.96;101268.88;5036522;28;51064;-56
2021/09/17 08:29:37;;;;;;;;;12.50;11.75;;;;;23.70;46.52;101272.25;5036906;28;51654;-57
2021/09/17 08:32:03;;;;;;;;;12.25;10.25;;;;;23.72;46.43;101264.53;5036383;28;51031;-57
2021/09/17 08:34:28;;;;;;;;;13.25;11.50;;;;;23.73;46.90;101266.22;5036183;28;51097;-57
2021/09/17 08:36:53;;;;;;;;;8.50;8.00;;;;;23.76;46.27;101274.06;5036404;28;51090;-57
2021/09/17 08:39:19;;;;;;;;;9.25;9.25;;;;;23.78;46.71;101266.38;5036214;28;52449;-57
2021/09/17 08:41:46;;;;;;;;;8.75;8.00;;;;;23.79;46.65;101263.38;5035705;28;50988;-57
2021/09/17 08:44:12;;;;;;;;;7.00;6.75;;;;;23.81;46.16;101260.38;5036392;28;52673;-57
2021/09/17 08:46:40;;;;;;;;;8.25;7.00;;;;;23.83;46.50;101270.13;5036309;28;51090;-56
2021/09/17 08:49:06;;;;;;;;;9.00;7.75;;;;;23.84;45.83;101263.50;5036311;28;51530;-57
2021/09/17 08:51:31;;;;;;;;;8.50;6.50;;;;;23.87;46.08;101270.50;5036353;28;51153;-57
2021/09/17 08:53:57;;;;;;;;;10.25;6.75;;;;;23.90;46.03;101264.50;5035954;28;51025;-56
2021/09/17 08:56:22;;;;;;;;;6.75;6.75;;;;;23.92;45.95;101265.09;5035832;28;51097;-57
2021/09/17 08:58:48;;;;;;;;;8.50;6.50;;;;;23.95;45.93;101263.78;5036159;28;51055;-57
2021/09/17 09:01:31;;;;;;;;;10.00;6.25;;;;;23.98;45.64;101269.72;5033555;28;51065;-56
2021/09/17 09:04:02;;;;;;;;;8.25;7.00;;;;;23.99;45.59;101267.78;5034056;28;51779;-57
2021/09/17 09:06:37;;;;;;;;;6.50;6.50;;;;;24.00;45.61;101263.94;5032598;28;51122;-59
2021/09/17 09:09:04;;;;;;;;;9.00;7.25;;;;;24.02;45.51;101259.00;5028667;28;51212;-52
2021/09/17 09:11:30;;;;;;;;;9.00;7.25;;;;;24.03;45.46;101258.75;5023078;28;51548;-55
2021/09/17 09:14:04;;;;;;;;;8.75;7.25;;;;;24.07;45.89;101259.13;5031157;28;51904;-53
2021/09/17 09:16:30;;;;;;;;;7.50;7.00;;;;;24.10;45.58;101258.69;5032116;28;51323;-53
2021/09/17 09:18:56;;;;;;;;;7.75;7.00;;;;;24.12;45.68;101245.44;5022696;28;51213;-54
2021/09/17 09:21:31;;;;;;;;;6.00;6.00;;;;;24.16;45.41;101253.00;5030693;28;51508;-55
2021/09/17 09:24:22;;;;;;;;;9.25;8.25;;;;;24.18;45.04;101247.28;5024212;28;52973;-54
2021/09/17 09:27:20;;;;;;;;;9.50;5.00;;;;;24.21;45.17;101249.56;5034110;28;51318;-53
2021/09/17 09:29:48;;;;;;;;;7.75;7.75;;;;;24.25;45.01;101244.38;5023569;28;51506;-53
2021/09/17 09:32:33;;;;;;;;;7.25;7.25;;;;;24.28;44.86;101241.13;5031338;28;51477;-54
2021/09/17 09:35:06;;;;;;;;;8.00;7.00;;;;;24.31;44.75;101241.53;5021187;28;51333;-54
2021/09/17 09:37:37;;;;;;;;;8.50;7.25;;;;;24.33;44.81;101247.69;5032516;28;51479;-54
2021/09/17 09:40:11;;;;;;;;;9.25;9.00;;;;;24.36;44.85;101235.28;5022157;28;51457;-54
2021/09/17 09:42:38;;;;;;;;;8.00;7.25;;;;;24.38;44.87;101241.41;5032143;28;51532;-55
2021/09/17 09:45:22;;;;;;;;;10.25;8.75;;;;;24.40;44.77;101236.50;5030905;28;51813;-53
2021/09/17 09:47:55;;;;;;;;;12.00;10.75;;;;;24.42;44.70;101237.94;5032226;28;51241;-55
2021/09/17 09:50:27;;;;;;;;;8.75;8.25;;;;;24.44;44.64;101241.31;5031784;28;51409;-53
2021/09/17 09:52:56;;;;;;;;;9.50;9.00;;;;;24.47;44.42;101243.59;5030507;28;51101;-55
2021/09/17 09:55:22;;;;;;;;;6.25;6.25;;;;;24.47;44.49;101235.28;5029009;28;51849;-53
2021/09/17 09:57:47;;;;;;;;;9.00;7.25;;;;;24.52;44.42;101242.03;5021178;28;51173;-53
2021/09/17 10:00:14;;;;;;;;;7.75;7.00;;;;;24.54;44.40;101239.88;5029669;28;51446;-54
2021/09/17 10:02:41;;;;;;;;;7.00;7.00;;;;;24.55;44.27;101228.56;5034782;28;51120;-55
2021/09/17 10:05:10;;;;;;;;;9.00;8.75;;;;;24.55;44.03;101231.31;5032199;28;51910;-55
2021/09/17 10:07:36;;;;;;;;;8.00;6.50;;;;;24.58;44.23;101227.22;5027110;28;51041;-55
2021/09/17 10:10:08;;;;;;;;;6.75;6.75;;;;;24.60;44.08;101225.91;5032642;28;51296;-56
2021/09/17 10:12:35;;;;;;;;;8.50;7.75;;;;;24.62;43.97;101223.75;5029491;28;51092;-56
2021/09/17 10:15:01;;;;;;;;;9.00;7.50;;;;;24.63;43.78;101217.13;5022415;28;51062;-56
2021/09/17 10:17:32;;;;;;;;;7.25;7.00;;;;;24.65;43.79;101228.78;5027356;28;51117;-56
2021/09/17 10:19:59;;;;;;;;;10.75;10.25;;;;;24.66;43.47;101219.41;5027603;28;51194;-55
2021/09/17 10:22:37;;;;;;;;;7.25;7.00;;;;;24.68;43.39;101228.31;5033850;28;51273;-55
2021/09/17 10:25:20;;;;;;;;;9.25;8.75;;;;;24.69;43.46;101216.13;5022817;28;51765;-56
2021/09/17 10:28:00;;;;;;;;;8.75;6.50;;;;;24.69;43.35;101216.13;5034020;28;51248;-55
2021/09/17 10:30:30;;;;;;;;;7.25;7.00;;;;;24.73;43.25;101213.75;5028377;28;51222;-56
2021/09/17 10:32:55;;;;;;;;;9.00;7.75;;;;;24.75;43.17;101206.88;5036033;28;51153;-56
2021/09/17 10:35:25;;;;;;;;;7.00;6.00;;;;;24.77;43.23;101210.22;5033873;28;52068;-56
2021/09/17 10:38:05;;;;;;;;;10.75;8.50;;;;;24.80;43.09;101219.13;5031999;28;51250;-56
2021/09/17 10:40:44;;;;;;;;;10.50;7.00;;;;;24.82;43.43;101206.75;5032036;28;51303;-55
2021/09/17 10:43:10;;;;;;;;;9.50;8.00;;;;;24.85;43.32;101209.03;5029562;28;51391;-56
2021/09/17 10:45:37;;;;;;;;;6.25;5.00;;;;;24.86;43.03;101207.09;5035260;28;51112;-56
2021/09/17 10:48:04;;;;;;;;;7.25;6.50;;;;;24.87;43.12;101215.16;5030091;28;51424;-57
2021/09/17 10:50:47;;;;;;;;;5.75;5.25;;;;;24.90;43.20;101202.75;5028084;28;51061;-56
2021/09/17 10:53:14;;;;;;;;;5.75;5.50;;;;;24.90;43.28;101202.75;5049812;28;51039;-57
2021/09/17 10:55:45;;;;;;;;;7.00;5.00;;;;;24.92;43.13;101200.59;5048540;28;51993;-58
2021/09/17 10:58:27;;;;;;;;;7.50;6.00;;;;;24.93;43.31;101205.06;5043293;28;51099;-58
2021/09/17 11:00:57;;;;;;;;;5.75;5.50;;;;;24.93;43.53;101205.88;5049179;28;51014;-58
2021/09/17 11:03:35;;;;;;;;;6.25;6.00;;;;;24.93;43.50;101203.13;5047589;28;51012;-57
2021/09/17 11:06:18;;;;;;;;;4.75;3.75;;;;;24.94;43.41;101201.19;5054092;28;52061;-57
2021/09/17 11:08:51;;;;;;;;;6.25;5.25;;;;;24.94;43.68;101196.47;5017614;28;51242;-57
2021/09/17 11:11:31;;;;;;;;;6.00;5.25;;;;;24.95;43.57;101186.25;5014683;28;51083;-57